Hurricane Symbol View the latest observations near Atlantic Tropical Storm Alberto.

Station 45002 (LLNR 18310) - NORTH MICHIGAN- Halfway between North Manitou and Washington Islands. Image indicating link to RSS feed of recent meteorological observations for station 45002


Conditions at 45002 as of
(3:40 am EDT)
0740 GMT on 06/20/2024:
     

Click on the graph icon in the table below to see a time series plot of the last five days of that observation.

5-day plot - Wind Direction Wind Direction (WDIR):NNE ( 20 deg true )
5-day plot - Wind Speed Wind Speed (WSPD): 7.8 kts
5-day plot - Wind Gust Wind Gust (GST): 9.7 kts
5-day plot - Water Temperature Water Temperature (WTMP): 56.7 °F
5-day plot - Wind Speed at 10 Meters Wind Speed at 10 meters (WSPD10M): 9.7 kts
5-day plot - Wind Speed at 20 Meters Wind Speed at 20 meters (WSPD20M): 9.7 kts
5-day plot -  Wind Speed, Wind Gust and Atmospheric Pressure Combined plot of Wind Speed, Gust, and Air Pressure
Supplemental Measurements
Highest 1-minute Wind Speed
Time (EDT)5-day plot - 1-Minute Wind Speed WSPD 5-day plot - 1-Minute Wind Direction WDIR
3:34 am 9.7 kts-
Previous observations
TIME
(EDT)
5-day plot - Wind Direction
WDIR
 
5-day plot - Wind Speed
WSPD
kts
5-day plot - Wind Gust
GST
kts
5-day plot - Wave Height
WVHT
ft
5-day plot - Dominant Wave Period
DPD
sec
5-day plot - Average Wave Period
APD
sec
5-day plot - Mean Wave Direction
MWD
 
5-day plot - Atmospheric Pressure
PRES
in
5-day plot - Pressure Tendency
PTDY
in
5-day plot - Air Temperature
ATMP
°F
5-day plot - Water Temperature
WTMP
°F
5-day plot - Dew Point
DEWP
°F
5-day plot - Salinity
SAL
psu
5-day plot - Visibility
VIS
nmi
5-day plot - Tide (above MLLW)
TIDE
ft
2024-06-20 03:30 amNNE 7.8 7.8------- 56.5----
2024-06-20 03:20 amNNE 5.8 7.8 1.0 32.8 NE--- 56.5----
2024-06-20 03:10 amNNE 5.8 7.8 1.0-2.8 NE--- 56.5----
2024-06-20 03:00 amNNE 7.8 9.7------- 56.5----
2024-06-20 02:50 am NE 7.8 9.7 1.0 32.9 NE--- 56.5----
2024-06-20 02:40 am NE 7.8 9.7------- 56.5----
2024-06-20 02:30 amNNE 9.7 11.7------- 56.5----
2024-06-20 02:20 amNNE 9.7 13.6 1.0 52.9SSW--- 56.5----
2024-06-20 02:10 amNNE 11.7 13.6------- 56.5----
2024-06-20 02:00 amNNE 11.7 13.6------- 56.5----
2024-06-20 01:50 amNNE 11.7 13.6 1.0 33.0 NE--- 56.5----
2024-06-20 01:40 amNNE 11.7 13.6------- 56.5----
2024-06-20 01:30 amNNE 11.7 13.6------- 56.5----
2024-06-20 01:20 amNNE 7.8 11.7 1.3 53.1SSW--- 56.5----
2024-06-20 01:10 amNNE 7.8 11.7 1.3-3.1SSW--- 56.5----
2024-06-20 01:00 am NE 7.8 9.7------- 56.5----
2024-06-20 12:50 am NE 7.8 9.7 1.3 53.2SSW--- 56.5----
2024-06-20 12:40 amENE 7.8 9.7------- 56.5----
2024-06-20 12:30 am NE 9.7 11.7------- 56.5----
2024-06-20 12:20 am NE 9.7 11.7 1.3 53.1SSW--- 56.5----
2024-06-20 12:10 am NE 9.7 11.7 1.3-3.1SSW--- 56.5----
2024-06-20 12:00 am NE 11.7 13.6------- 56.5----
2024-06-19 11:50 pm NE 11.7 13.6 1.6 53.1 S--- 56.5----
2024-06-19 11:40 pm NE 11.7 13.6------- 56.5----
2024-06-19 11:30 pm NE 13.6 15.5------- 56.5----
2024-06-19 11:20 pm NE 13.6 15.5 1.3 53.2 S--- 56.7----
2024-06-19 11:10 pm NE 11.7 13.6 1.3-3.2 S--- 56.7----
2024-06-19 11:00 pm NE 11.7 13.6------- 56.7----
2024-06-19 10:50 pmNNE 13.6 17.5 1.6 53.3 S--- 56.7----
2024-06-19 10:40 pmNNE 13.6 17.5 1.6-3.3 S--- 56.7----
2024-06-19 10:30 pmNNE 11.7 13.6------- 56.7----
2024-06-19 10:20 pmNNE 11.7 13.6 1.6 53.9 S--- 56.7----
2024-06-19 10:10 pmNNE 11.7 13.6 1.6-3.9 S--- 56.7----
2024-06-19 10:00 pm NE 11.7 13.6------- 56.8----
2024-06-19 09:50 pmNNE 11.7 13.6 1.6 54.0SSW--- 56.8----
2024-06-19 09:40 pmNNE 9.7 11.7------- 56.8----
2024-06-19 09:30 pmNNE 9.7 11.7------------
2024-06-19 09:20 pmNNE 9.7 11.7 2.0 54.0 S--- 56.8----
2024-06-19 09:10 pm NE 7.8 11.7------- 56.8----
2024-06-19 09:00 pmNNE 7.8 9.7------- 56.8----
2024-06-19 08:50 pm N 3.9 5.8 2.0 54.1 S--- 56.8----
2024-06-19 08:40 pm N 1.9 3.9------- 56.8----
2024-06-19 08:30 pm NW 3.9 3.9------- 56.8----
2024-06-19 08:20 pm NW 3.9 5.8 2.3 64.1 S--- 56.8----
2024-06-19 08:10 pmWNW 5.8 5.8 2.3-4.1 S--- 56.8----
2024-06-19 08:00 pm NW 7.8 13.6------- 56.8----
2024-06-19 07:50 pm SW 7.8 11.7 2.3 64.1 S--- 56.8----
2024-06-19 07:40 pmSSW 9.7 11.7------- 56.8----
2024-06-19 07:30 pmSSW 7.8 9.7------- 56.8----
2024-06-19 07:20 pmSSW 5.8 9.7 2.6 64.3 S--- 56.8----
2024-06-19 07:10 pmSSW 9.7 11.7 2.6-4.3 S--- 56.8----
2024-06-19 07:00 pmSSW 9.7 11.7------- 56.8----
2024-06-19 06:50 pmSSW 9.7 11.7 2.6 64.1 S--- 56.8----
2024-06-19 06:40 pmSSW 9.7 13.6------- 56.8----
2024-06-19 06:30 pmSSW 11.7 13.6------- 56.8----
2024-06-19 06:20 pm S 11.7 13.6 3.0 64.4 S--- 56.8----
2024-06-19 06:10 pmSSW 9.7 11.7 3.0-4.4 S--- 56.8----
2024-06-19 06:00 pm S 11.7 13.6------- 56.8----
2024-06-19 05:50 pm S 9.7 11.7 3.0 54.4 S--- 56.8----
2024-06-19 05:40 pm S 9.7 11.7------- 56.8----
2024-06-19 05:30 pm S 9.7 13.6------- 56.8----
2024-06-19 05:20 pmSSW 9.7 13.6 3.3 64.6 S--- 56.8----
2024-06-19 05:10 pm S 5.8 7.8 3.3-4.6 S--- 56.8----
2024-06-19 05:00 pm S 7.8 9.7------- 56.8----
2024-06-19 04:50 pm S 7.8 9.7 3.0 64.5 S--- 56.8----
2024-06-19 04:40 pm S 7.8 9.7 3.0-4.5 S--- 56.8----
2024-06-19 04:30 pmSSW 7.8 9.7------- 56.8----
2024-06-19 04:20 pm S 9.7 11.7 3.6 64.6 S--- 56.8----
2024-06-19 04:10 pmSSW 9.7 9.7 3.6-4.6 S--- 56.8----
2024-06-19 04:00 pmSSW 9.7 11.7------- 56.8----
2024-06-19 03:50 pmSSW 9.7 11.7 3.3 64.7 S--- 56.8----
2024-06-19 03:40 pmSSW 9.7 13.6------- 56.8----
2024-06-19 03:30 pm S 9.7 11.7------- 56.8----
2024-06-19 03:20 pm S 9.7 11.7 3.6 64.7 S--- 56.8----
2024-06-19 03:10 pm S 9.7 11.7 3.6-4.7 S--- 56.8----
2024-06-19 03:00 pm S 9.7 11.7------- 56.8----
2024-06-19 02:50 pmSSW 9.7 11.7 3.6 64.6 S--- 56.8----
2024-06-19 02:40 pm S 11.7 13.6------- 57.0----
2024-06-19 02:30 pm S 11.7 13.6------- 57.0----
2024-06-19 02:20 pm S 11.7 13.6 3.6 64.7 S--- 57.0----
2024-06-19 02:10 pm S 11.7 13.6 3.6-4.7 S--- 57.0----
2024-06-19 02:00 pm S 11.7 13.6------- 57.0----
2024-06-19 01:50 pmSSW 11.7 13.6 3.9 64.8SSW--- 57.0----
2024-06-19 01:40 pmSSW 13.6 15.5 3.9-4.8SSW--- 56.8----
2024-06-19 01:30 pmSSW 11.7 15.5------- 56.8----
2024-06-19 01:20 pm S 11.7 13.6 3.9 64.8 S--- 56.8----
2024-06-19 01:10 pmSSW 11.7 13.6 3.9-4.8 S--- 56.7----
2024-06-19 01:00 pm S 9.7 13.6------- 56.7----
2024-06-19 12:50 pmSSW 9.7 11.7 3.9 64.8SSW--- 56.5----
2024-06-19 12:40 pmSSW 9.7 11.7 3.9-4.8SSW--- 56.5----
2024-06-19 12:30 pmSSW 9.7 11.7------- 56.5----
2024-06-19 12:20 pmSSW 9.7 11.7 4.9 65.0SSW--- 56.5----
2024-06-19 12:10 pm SW 7.8 9.7------- 56.3----
2024-06-19 12:00 pmSSW 7.8 9.7------- 56.3----
2024-06-19 11:50 amSSW 9.7 9.7 4.9 75.0 S--- 56.3----
2024-06-19 11:40 amSSW 9.7 11.7------- 56.1----
2024-06-19 11:30 am S 11.7 13.6------- 56.1----
2024-06-19 11:20 amSSW 11.7 15.5 4.9 65.0 S--- 56.1----
2024-06-19 11:10 amSSW 11.7 13.6 4.9-5.0 S--- 55.9----
2024-06-19 11:00 amSSW 11.7 13.6------- 55.9----
2024-06-19 10:50 amSSW 11.7 15.5 5.6 74.9 S--- 55.9----
2024-06-19 10:40 amSSW 11.7 15.5------- 55.9----
2024-06-19 10:30 amSSW 13.6 15.5------- 55.8----
2024-06-19 10:20 amSSW 15.5 19.4 5.9 64.8SSW--- 55.8----
2024-06-19 10:10 amSSW 15.5 19.4 5.9-4.8SSW--- 55.8----
2024-06-19 10:00 amSSW 15.5 19.4------- 55.6----
2024-06-19 09:50 amSSW 17.5 21.4 5.6 74.8 S--- 55.6----
2024-06-19 09:40 amSSW 17.5 21.4 5.6-4.8 S--- 55.6----
2024-06-19 09:30 amSSW 17.5 21.4------- 55.6----
2024-06-19 09:20 amSSW 17.5 21.4 5.6 74.9 S--- 55.6----
2024-06-19 09:10 am S 17.5 21.4 5.6-4.9 S--- 55.8----
2024-06-19 09:00 am S 19.4 23.3------- 55.8----
2024-06-19 08:50 am S 17.5 23.3 5.6 74.7SSW--- 55.8----
2024-06-19 08:40 am S 17.5 23.3 5.6-4.7SSW--- 55.8----
2024-06-19 08:30 am S 17.5 21.4------- 55.8----
2024-06-19 08:20 am S 19.4 23.3 5.9 64.9 S--- 55.8----
2024-06-19 08:10 am S 19.4 25.3 5.9-4.9 S--- 55.8----
2024-06-19 08:00 am S 19.4 23.3------- 55.8----
2024-06-19 07:50 am S 21.4 23.3 5.9 64.8 S--- 55.8----
2024-06-19 07:40 am S 21.4 25.3------- 55.9----
2024-06-19 07:30 am S 21.4 25.3------- 55.9----
2024-06-19 07:20 am S 19.4 23.3 5.9 74.8 S--- 55.9----
2024-06-19 07:10 am S 19.4 23.3------- 55.9----
2024-06-19 07:00 am S 21.4 25.3------- 55.9----
2024-06-19 06:50 am S 19.4 25.3 5.9 64.8 S--- 55.9----
2024-06-19 06:40 am S 19.4 23.3 5.9-4.8 S--- 55.9----
2024-06-19 06:30 am S 21.4 27.2------- 55.9----
2024-06-19 06:20 am S 19.4 23.3 5.9 64.9 S--- 55.9----
2024-06-19 06:10 am S 19.4 23.3 5.9-4.9 S--- 55.9----
2024-06-19 06:00 am S 21.4 25.3------- 55.9----
2024-06-19 05:50 am S 21.4 25.3 6.2 65.0 S--- 55.9----
2024-06-19 05:40 am S 19.4 25.3 6.2-5.0 S--- 55.9----
2024-06-19 05:30 am S 19.4 23.3------- 55.9----
2024-06-19 05:20 am S 17.5 21.4 6.6 75.0 S--- 55.9----
2024-06-19 05:10 am S 17.5 21.4 6.6-5.0 S--- 55.9----
2024-06-19 05:00 am S 17.5 21.4------- 55.9----
2024-06-19 04:50 am S 19.4 23.3 6.6 74.9 S--- 55.9----
2024-06-19 04:40 am S 19.4 25.3 6.6-4.9 S--- 55.9----
2024-06-19 04:30 am S 21.4 23.3------- 55.9----
2024-06-19 04:20 am S 19.4 23.3 6.2 64.9 S--- 55.9----
2024-06-19 04:10 am S 19.4 25.3 6.2-4.9 S--- 55.9----
2024-06-19 04:00 am S 19.4 25.3------- 55.9----
2024-06-19 03:50 am S 19.4 25.3 5.9 75.0 S--- 55.9----

Detailed Wave Summary
for 45002 as of (3:10 am EDT)
0710 GMT on 06/20/2024:

These wave data are displayed in rounded times.

     

Click on the graph icon in the table below to see a time series plot of the last five days of that observation.

5-day plot - Significant Wave Height Significant Wave Height (WVHT): 1.0 ft
5-day plot - Swell Height Swell Height (SwH): 0.3 ft
5-day plot - Swell Period Swell Period (SwP): 4.8 sec
5-day plot - Swell Direction Swell Direction (SwD):SSW
5-day plot - Wind Wave Height Wind Wave Height (WWH): 1.0 ft
5-day plot - Wind Wave Period Wind Wave Period (WWP): 2.6 sec
5-day plot - Wind Wave Direction Wind Wave Direction (WWD): NE
5-day plot - Average Wave Period Average Wave Period (APD): 2.8 sec
Previous observations
TIME
(EDT)
5-day plot - Wave Height
WVHT
ft
5-day plot - Swell Height
SwH
ft
5-day plot - Swell Period
SwP
sec
5-day plot - Swell Direction
SwD
 
5-day plot - Wind Wave Height
WWH
ft
5-day plot - Wind Wave Period
WWP
sec
5-day plot - Wind Wave Direction
WWD
 
5-day plot - Wave Steepness
STEEPNESS
 
5-day plot - Average Wave Period
APD
sec
2024-06-20 02:40 am 1.0 0.7 5.0SSW 1.0 2.7 NE N/A 2.9
2024-06-20 02:10 am 1.0 0.0 6.2 NE 1.0 5.0 SSW N/A 2.9
2024-06-20 01:40 am 1.0 0.0-- 1.0 2.7 NE N/A 3.0
2024-06-20 01:10 am 1.3 0.7 5.0SSW 1.0 2.9 NE N/A 3.1
2024-06-20 12:40 am 1.3 0.7 5.0SSW 1.0 2.9 NE N/A 3.2
2024-06-20 12:10 am 1.3 0.7 5.0SSW 1.3 2.9 NE N/A 3.1
2024-06-19 11:40 pm 1.6 0.3 7.7ENE 1.3 5.0 S N/A 3.1
2024-06-19 11:10 pm 1.3 0.3 7.7 NW 1.3 4.8 S N/A 3.2
2024-06-19 10:40 pm 1.6 0.0 9.1 W 1.6 4.8 S N/A 3.3
2024-06-19 10:10 pm 1.6 0.0-- 1.6 5.0 S N/A 3.9
2024-06-19 09:40 pm 1.6 1.3 5.0SSW 1.0 4.3 S N/A 4.0
2024-06-19 09:10 pm 2.0 1.3 5.3 S 1.3 3.8 SSW N/A 4.0
2024-06-19 08:40 pm 2.0 1.6 5.3 S 1.3 3.8 S N/A 4.1
2024-06-19 08:10 pm 2.3 2.0 5.6 S 1.3 3.8 S N/A 4.1
2024-06-19 07:40 pm 2.3 1.6 5.6 S 1.6 4.0 S N/A 4.1
2024-06-19 07:10 pm 2.6 2.3 5.6 S 1.6 4.0 S STEEP 4.3
2024-06-19 06:40 pm 2.6 1.6 5.6 S 2.0 4.5 S STEEP 4.1
2024-06-19 06:10 pm 3.0 2.0 5.9 S 2.3 5.0 S STEEP 4.4
2024-06-19 05:40 pm 3.0 2.3 5.3 S 1.6 4.5 S STEEP 4.4
2024-06-19 05:10 pm 3.3 3.0 5.9 S 1.3 3.6 S STEEP 4.6
2024-06-19 04:40 pm 3.0 2.6 5.9 S 1.3 4.0 S STEEP 4.5
2024-06-19 04:10 pm 3.6 3.0 5.9 S 2.0 4.3 S STEEP 4.6
2024-06-19 03:40 pm 3.3 2.6 5.9 S 2.0 4.3 S STEEP 4.7
2024-06-19 03:10 pm 3.6 3.3 6.2 S 1.6 4.3 S STEEP 4.7
2024-06-19 02:40 pm 3.6 2.6 6.2 S 2.3 4.5 SSW STEEP 4.6
2024-06-19 02:10 pm 3.6 0.0-- 3.6 5.9 S STEEP 4.7
2024-06-19 01:40 pm 3.9 1.6 10.8SSE 3.6 6.2 SSW STEEP 4.8
2024-06-19 01:10 pm 3.9 3.0 5.9 S 2.6 4.8 S STEEP 4.8
2024-06-19 12:40 pm 3.9 3.3 6.2SSW 2.3 4.5 SSW STEEP 4.8
2024-06-19 12:10 pm 4.9 4.3 6.2SSW 2.0 4.0 S STEEP 5.0
2024-06-19 11:40 am 4.9 3.9 6.7 S 2.6 3.8 SSW STEEP 5.0
2024-06-19 11:10 am 4.9 3.6 6.2 S 3.6 4.5 SSW STEEP 5.0
2024-06-19 10:40 am 5.6 2.6 6.7 S 4.6 5.3 SSW STEEP 4.9
2024-06-19 10:10 am 5.9 0.0-- 5.9 6.2 SSWVERY_STEEP 4.8
2024-06-19 09:40 am 5.6 0.0-- 5.6 6.7 S STEEP 4.8
2024-06-19 09:10 am 5.6 0.7 13.8 SW 5.6 6.7 S STEEP 4.9
2024-06-19 08:40 am 5.6 0.0-- 5.6 6.7 SSW STEEP 4.7
2024-06-19 08:10 am 5.9 0.3 10.8 NW 5.9 6.2 SVERY_STEEP 4.9
2024-06-19 07:40 am 5.9 0.0-- 5.9 6.2 SVERY_STEEP 4.8
2024-06-19 07:10 am 5.9 0.0-- 5.9 6.7 S STEEP 4.8
2024-06-19 06:40 am 5.9 0.0-- 5.9 6.2 SVERY_STEEP 4.8
2024-06-19 06:10 am 5.9 0.3 9.1 SW 5.9 6.2 SVERY_STEEP 4.9
2024-06-19 05:40 am 6.2 0.0-- 6.2 6.2 SVERY_STEEP 5.0
2024-06-19 05:10 am 6.6 0.0-- 6.6 6.7 S STEEP 5.0
2024-06-19 04:40 am 6.6 0.3 13.8SSE 6.6 6.7 S STEEP 4.9
2024-06-19 04:10 am 6.2 0.3 10.0 S 6.2 5.9 SVERY_STEEP 4.9

Plot of wave energy versus frequency (and period)